createdAt,value
2022-09-06T00:00:40.556Z,2.10
2022-09-06T00:03:42.181Z,1.83
2022-09-06T00:06:43.668Z,2.30
2022-09-06T00:09:45.185Z,1.83
2022-09-06T00:12:47.673Z,2.10
2022-09-06T00:15:49.169Z,2.10
2022-09-06T00:18:54.765Z,2.20
2022-09-06T00:21:56.209Z,2.20
2022-09-06T00:24:57.616Z,2.40
2022-09-06T00:28:01.428Z,2.20
2022-09-06T00:31:29.489Z,2.30
2022-09-06T00:34:31.443Z,1.97
2022-09-06T00:37:32.872Z,2.20
2022-09-06T00:40:35.550Z,1.83
2022-09-06T00:43:37.167Z,2.43
2022-09-06T00:46:42.051Z,2.20
2022-09-06T00:49:51.078Z,2.23
2022-09-06T00:52:52.780Z,2.10
2022-09-06T00:55:54.864Z,1.93
2022-09-06T00:58:56.291Z,2.00
2022-09-06T01:01:58.437Z,2.10
2022-09-06T01:05:00.388Z,2.87
2022-09-06T01:08:06.311Z,2.00
2022-09-06T01:11:26.019Z,2.27
2022-09-06T01:14:55.517Z,2.80
2022-09-06T01:17:59.893Z,2.50
2022-09-06T01:21:07.484Z,2.20
2022-09-06T01:24:31.861Z,2.10
2022-09-06T01:27:51.686Z,2.47
2022-09-06T01:31:26.678Z,2.27
2022-09-06T01:34:35.218Z,2.33
2022-09-06T01:37:37.005Z,2.20
2022-09-06T01:40:38.409Z,3.00
2022-09-06T01:43:43.895Z,2.97
2022-09-06T01:47:11.547Z,2.80
2022-09-06T01:50:43.945Z,2.60
2022-09-06T01:54:00.922Z,2.43
2022-09-06T01:57:13.639Z,2.30
2022-09-06T02:00:18.504Z,3.00
2022-09-06T02:03:35.004Z,2.40
2022-09-06T02:06:43.255Z,2.40
2022-09-06T02:09:49.814Z,2.93
2022-09-06T02:12:55.152Z,2.50
2022-09-06T02:16:03.639Z,2.57
2022-09-06T02:19:11.735Z,2.67
2022-09-06T02:22:18.585Z,2.60
2022-09-06T02:25:51.726Z,2.97
2022-09-06T02:28:53.453Z,2.70
2022-09-06T02:32:11.029Z,2.83
2022-09-06T02:35:14.934Z,3.20
2022-09-06T02:38:17.582Z,3.00
2022-09-06T02:41:22.618Z,2.80
2022-09-06T02:44:24.139Z,3.30
2022-09-06T02:47:25.557Z,3.10
2022-09-06T02:50:27.213Z,2.97
2022-09-06T02:53:28.629Z,3.27
2022-09-06T02:56:30.098Z,3.00
2022-09-06T02:59:32.362Z,3.40
2022-09-06T03:02:33.848Z,2.90
2022-09-06T03:05:35.492Z,3.50
2022-09-06T03:08:36.958Z,2.93
2022-09-06T03:11:38.490Z,3.10
2022-09-06T03:14:41.199Z,3.30
2022-09-06T03:17:43.604Z,3.40
2022-09-06T03:20:45.334Z,3.13
2022-09-06T03:23:46.822Z,3.30
2022-09-06T03:26:48.302Z,3.53
2022-09-06T03:29:49.828Z,3.90
2022-09-06T03:32:51.232Z,3.43
2022-09-06T03:35:55.499Z,3.27
2022-09-06T03:38:56.921Z,3.47
2022-09-06T03:41:58.348Z,3.70
2022-09-06T03:44:59.786Z,3.50
2022-09-06T03:48:01.213Z,3.43
2022-09-06T03:51:02.676Z,3.40
2022-09-06T03:54:04.262Z,3.10
2022-09-06T03:57:05.717Z,3.43
2022-09-06T04:00:07.914Z,3.20
2022-09-06T04:03:13.079Z,3.47
2022-09-06T04:06:14.571Z,3.30
2022-09-06T04:09:16.012Z,3.10
2022-09-06T04:12:17.486Z,3.57
2022-09-06T04:15:18.903Z,3.40
2022-09-06T04:18:20.960Z,3.83
2022-09-06T04:21:22.390Z,3.30
2022-09-06T04:24:23.804Z,3.53
2022-09-06T04:27:25.220Z,3.17
2022-09-06T04:30:26.726Z,3.50
2022-09-06T04:33:29.488Z,3.37
2022-09-06T04:36:30.950Z,3.40
2022-09-06T04:39:32.387Z,3.33
2022-09-06T04:42:33.871Z,3.30
2022-09-06T04:45:35.359Z,3.63
2022-09-06T04:48:36.827Z,3.90
2022-09-06T04:51:39.448Z,3.67
2022-09-06T04:54:41.270Z,3.90
2022-09-06T04:57:46.605Z,3.87
2022-09-06T05:00:49.954Z,4.20
2022-09-06T05:03:54.993Z,3.30
2022-09-06T05:07:02.940Z,4.03
2022-09-06T05:10:04.719Z,4.07
2022-09-06T05:13:06.167Z,4.00
2022-09-06T05:16:09.032Z,3.90
2022-09-06T05:19:10.712Z,4.07
2022-09-06T05:22:12.422Z,4.00
2022-09-06T05:25:13.882Z,4.00
2022-09-06T05:28:16.257Z,4.80
2022-09-06T05:31:32.032Z,5.03
2022-09-06T05:34:33.525Z,4.27
2022-09-06T05:37:34.959Z,4.20
2022-09-06T05:40:36.386Z,3.70
2022-09-06T05:43:37.790Z,4.40
2022-09-06T05:46:46.157Z,4.00
2022-09-06T05:49:47.627Z,3.67
2022-09-06T05:52:49.037Z,4.23
2022-09-06T05:55:50.454Z,3.90
2022-09-06T05:58:51.871Z,4.60
2022-09-06T06:01:54.106Z,5.00
2022-09-06T06:04:55.601Z,5.07
2022-09-06T06:07:58.846Z,4.13
2022-09-06T06:11:01.289Z,3.87
2022-09-06T06:14:04.214Z,4.10
2022-09-06T06:17:05.825Z,4.50
2022-09-06T06:20:07.877Z,4.00
2022-09-06T06:23:09.269Z,4.27
2022-09-06T06:26:12.269Z,4.43
2022-09-06T06:29:14.464Z,4.60
2022-09-06T06:32:15.986Z,4.70
2022-09-06T06:35:17.458Z,4.50
2022-09-06T06:38:18.877Z,3.93
2022-09-06T06:41:23.876Z,4.03
2022-09-06T06:44:26.621Z,4.40
2022-09-06T06:47:28.017Z,4.30
2022-09-06T06:50:29.425Z,4.07
2022-09-06T06:53:30.951Z,6.07
2022-09-06T06:56:37.903Z,4.23
2022-09-06T06:59:40.031Z,4.90
2022-09-06T07:02:41.455Z,4.13
2022-09-06T07:09:08.494Z,3.77
2022-09-06T07:12:10.051Z,4.70
2022-09-06T07:15:11.504Z,4.40
2022-09-06T07:18:16.049Z,4.53
2022-09-06T07:24:41.161Z,3.73
2022-09-06T07:27:47.141Z,3.77
2022-09-06T07:30:53.372Z,3.67
2022-09-06T07:33:55.687Z,4.03
2022-09-06T07:36:57.326Z,3.93
2022-09-06T07:39:58.806Z,3.93
2022-09-06T07:43:00.285Z,3.63
2022-09-06T07:46:08.198Z,3.90
2022-09-06T07:49:09.654Z,3.90
2022-09-06T07:55:32.578Z,3.47
2022-09-06T07:58:35.082Z,3.90
2022-09-06T08:01:40.074Z,3.87
2022-09-06T08:04:42.467Z,3.77
2022-09-06T08:07:43.872Z,3.70
2022-09-06T08:10:50.229Z,3.60
2022-09-06T08:13:54.707Z,3.37
2022-09-06T08:16:56.157Z,3.60
2022-09-06T08:19:57.606Z,3.93
2022-09-06T08:22:59.023Z,3.77
2022-09-06T08:26:00.842Z,3.70
2022-09-06T08:29:05.830Z,3.80
2022-09-06T08:32:07.274Z,3.20
2022-09-06T08:35:09.300Z,3.20
2022-09-06T08:38:10.710Z,3.20
2022-09-06T08:41:24.663Z,3.87
2022-09-06T08:44:58.488Z,3.37
2022-09-06T08:48:00.293Z,3.70
2022-09-06T08:51:43.650Z,3.70
2022-09-06T08:55:13.072Z,3.77
2022-09-06T08:58:39.144Z,3.50
2022-09-06T09:02:15.156Z,3.33
2022-09-06T09:05:24.631Z,3.47
2022-09-06T09:08:56.820Z,3.40
2022-09-06T09:12:00.539Z,3.83
2022-09-06T09:15:08.724Z,3.60
2022-09-06T09:18:10.204Z,3.60
2022-09-06T09:21:12.040Z,3.43
2022-09-06T09:24:15.625Z,3.63
2022-09-06T09:27:20.083Z,3.30
2022-09-06T09:33:42.907Z,3.90
2022-09-06T09:40:12.804Z,3.70
2022-09-06T09:43:20.268Z,3.65
2022-09-06T09:46:24.516Z,3.60
2022-09-06T09:49:26.004Z,3.28
2022-09-06T09:52:30.838Z,3.40
2022-09-06T09:55:32.484Z,3.92
2022-09-06T09:58:36.657Z,3.33
2022-09-06T10:01:38.656Z,3.30
2022-09-06T10:04:47.029Z,3.58
2022-09-06T10:07:50.912Z,3.40
2022-09-06T10:10:52.662Z,3.67
2022-09-06T10:14:10.140Z,3.58
2022-09-06T10:17:29.652Z,3.60
2022-09-06T10:20:37.611Z,4.10
2022-09-06T10:24:28.459Z,3.90
2022-09-06T10:27:30.989Z,3.45
2022-09-06T10:30:36.290Z,3.78
2022-09-06T10:34:02.921Z,3.35
2022-09-06T10:37:19.719Z,4.15
2022-09-06T10:40:55.539Z,4.13
2022-09-06T10:44:15.221Z,4.15
2022-09-06T10:47:18.086Z,3.28
2022-09-06T10:50:19.917Z,3.72
2022-09-06T10:53:21.245Z,3.63
2022-09-06T10:56:37.043Z,3.53
2022-09-06T10:59:51.519Z,3.35
2022-09-06T11:06:36.711Z,3.25
2022-09-06T11:09:43.448Z,3.72
2022-09-06T11:12:53.919Z,3.80
2022-09-06T11:16:17.991Z,3.60
2022-09-06T11:19:28.933Z,3.60
2022-09-06T11:22:50.100Z,3.97
2022-09-06T11:25:54.237Z,3.50
2022-09-06T11:29:01.362Z,3.13
2022-09-06T11:32:24.026Z,3.78
2022-09-06T11:35:28.042Z,3.13
2022-09-06T11:38:29.517Z,3.60
2022-09-06T11:41:40.624Z,3.40
2022-09-06T11:45:12.708Z,3.38
2022-09-06T11:48:35.063Z,3.45
2022-09-06T11:51:42.058Z,3.63
2022-09-06T11:54:47.218Z,3.38
2022-09-06T11:57:55.054Z,3.25
2022-09-06T12:01:16.670Z,2.88
2022-09-06T12:04:18.128Z,2.90
2022-09-06T12:07:19.594Z,2.80
2022-09-06T12:10:30.082Z,2.85
2022-09-06T12:13:40.033Z,2.72
2022-09-06T12:16:56.653Z,2.88
2022-09-06T12:20:07.274Z,2.40
2022-09-06T12:23:08.920Z,2.88
2022-09-06T12:26:11.975Z,2.10
2022-09-06T12:29:14.153Z,2.75
2022-09-06T12:32:22.145Z,2.88
2022-09-06T12:39:09.630Z,2.53
2022-09-06T12:42:13.084Z,2.80
2022-09-06T12:45:15.349Z,2.45
2022-09-06T12:48:27.382Z,2.97
2022-09-06T12:51:29.146Z,2.20
2022-09-06T12:54:30.558Z,2.40
2022-09-06T12:57:32.072Z,2.88
2022-09-06T13:00:51.262Z,2.80
2022-09-06T13:04:02.820Z,2.55
2022-09-06T13:07:05.886Z,2.80
2022-09-06T13:10:08.758Z,2.38
2022-09-06T13:13:11.419Z,2.20
2022-09-06T13:16:19.322Z,2.45
2022-09-06T13:19:35.235Z,2.30
2022-09-06T13:22:42.506Z,2.08
2022-09-06T13:25:52.040Z,2.00
2022-09-06T13:28:53.448Z,2.50
2022-09-06T13:31:57.011Z,2.25
2022-09-06T13:35:00.127Z,1.90
2022-09-06T13:38:21.624Z,2.45
2022-09-06T13:41:25.872Z,2.33
2022-09-06T13:44:32.279Z,1.95
2022-09-06T13:47:33.709Z,2.00
2022-09-06T13:50:35.331Z,2.50
2022-09-06T13:53:37.065Z,2.58
2022-09-06T13:56:39.253Z,2.10
2022-09-06T13:59:42.067Z,2.40
2022-09-06T14:02:44.173Z,2.10
2022-09-06T14:05:45.745Z,2.15
2022-09-06T14:09:06.550Z,2.15
2022-09-06T14:12:09.893Z,2.13
2022-09-06T14:15:11.370Z,2.38
2022-09-06T14:18:14.533Z,2.03
2022-09-06T14:21:16.488Z,2.53
2022-09-06T14:24:18.020Z,1.95
2022-09-06T14:27:19.532Z,2.47
2022-09-06T14:30:21.053Z,2.40
2022-09-06T14:33:22.538Z,2.50
2022-09-06T14:36:26.956Z,2.40
2022-09-06T14:39:28.520Z,2.67
2022-09-06T14:42:30.652Z,2.20
2022-09-06T14:45:35.228Z,2.50
2022-09-06T14:48:40.322Z,2.80
2022-09-06T14:51:43.535Z,2.40
2022-09-06T14:54:45.002Z,2.85
2022-09-06T14:57:47.077Z,2.88
2022-09-06T15:00:50.131Z,2.40
2022-09-06T15:03:55.551Z,2.45
2022-09-06T15:06:57.038Z,2.45
2022-09-06T15:09:58.473Z,2.30
2022-09-06T15:12:59.938Z,2.25
2022-09-06T15:16:01.461Z,2.08
2022-09-06T15:19:03.756Z,2.30
2022-09-06T15:22:06.292Z,2.00
2022-09-06T15:25:08.115Z,2.30
2022-09-06T15:28:09.538Z,1.92
2022-09-06T15:31:12.190Z,1.98
2022-09-06T15:34:14.566Z,1.85
2022-09-06T15:37:16.005Z,2.40
2022-09-06T15:40:17.623Z,2.28
2022-09-06T15:43:19.914Z,2.10
2022-09-06T15:46:41.640Z,2.30
2022-09-06T15:49:43.112Z,2.00
2022-09-06T15:52:44.602Z,2.13
2022-09-06T15:55:58.014Z,2.30
2022-09-06T15:58:59.592Z,2.17
2022-09-06T16:02:01.119Z,2.42
2022-09-06T16:05:02.548Z,2.20
2022-09-06T16:08:03.965Z,2.38
2022-09-06T16:11:11.708Z,3.00
2022-09-06T16:14:15.696Z,2.55
2022-09-06T16:17:17.106Z,2.55
2022-09-06T16:20:18.526Z,2.15
2022-09-06T16:23:20.428Z,2.75
2022-09-06T16:26:24.433Z,2.38
2022-09-06T16:29:26.192Z,2.42
2022-09-06T16:32:27.606Z,2.28
2022-09-06T16:35:29.093Z,2.15
2022-09-06T16:38:32.089Z,2.00
2022-09-06T16:41:41.163Z,2.17
2022-09-06T16:44:42.717Z,2.42
2022-09-06T16:47:45.034Z,2.55
2022-09-06T16:50:46.491Z,2.38
2022-09-06T16:53:49.170Z,2.50
2022-09-06T16:56:50.579Z,2.17
2022-09-06T16:59:52.196Z,2.10
2022-09-06T17:02:53.682Z,2.30
2022-09-06T17:05:55.116Z,2.45
2022-09-06T17:09:00.529Z,2.03
2022-09-06T17:12:02.569Z,2.13
2022-09-06T17:15:04.488Z,2.15
2022-09-06T17:18:05.940Z,2.40
2022-09-06T17:21:08.109Z,2.38
2022-09-06T17:24:09.628Z,2.10
2022-09-06T17:27:11.152Z,1.98
2022-09-06T17:30:12.670Z,1.95
2022-09-06T17:33:16.890Z,2.08
2022-09-06T17:36:24.322Z,2.20
2022-09-06T17:39:25.775Z,1.83
2022-09-06T17:42:27.231Z,2.05
2022-09-06T17:45:29.226Z,2.28
2022-09-06T17:48:30.750Z,2.20
2022-09-06T17:51:32.994Z,2.33
2022-09-06T17:54:34.462Z,1.80
2022-09-06T17:57:36.137Z,1.90
2022-09-06T18:00:40.260Z,2.05
2022-09-06T18:03:42.988Z,2.70
2022-09-06T18:06:46.360Z,2.38
2022-09-06T18:09:47.832Z,2.40
2022-09-06T18:12:50.189Z,2.35
2022-09-06T18:15:51.604Z,2.10
2022-09-06T18:18:55.983Z,2.42
2022-09-06T18:21:57.629Z,2.53
2022-09-06T18:24:59.041Z,2.33
2022-09-06T18:28:00.450Z,2.80
2022-09-06T18:31:07.827Z,2.30
2022-09-06T18:34:09.998Z,2.40
2022-09-06T18:37:12.099Z,2.30
2022-09-06T18:40:13.536Z,3.10
2022-09-06T18:43:15.293Z,3.08
2022-09-06T18:46:16.770Z,3.15
2022-09-06T18:49:18.357Z,3.00
2022-09-06T18:52:20.657Z,2.90
2022-09-06T18:55:22.112Z,3.08
2022-09-06T18:58:23.699Z,2.60
2022-09-06T19:01:29.037Z,3.03
2022-09-06T19:04:31.006Z,3.05
2022-09-06T19:07:32.532Z,3.30
2022-09-06T19:10:33.964Z,3.20
2022-09-06T19:13:37.804Z,3.70
2022-09-06T19:16:39.327Z,3.85
2022-09-06T19:19:40.844Z,3.20
2022-09-06T19:22:42.288Z,3.20
2022-09-06T19:25:44.035Z,3.28
2022-09-06T19:28:54.680Z,3.20
2022-09-06T19:31:56.165Z,3.20
2022-09-06T19:34:57.746Z,3.58
2022-09-06T19:37:59.145Z,3.22
2022-09-06T19:41:02.469Z,2.83
2022-09-06T19:44:09.204Z,2.90
2022-09-06T19:47:10.850Z,3.20
2022-09-06T19:50:12.464Z,3.40
2022-09-06T19:53:13.963Z,3.33
2022-09-06T19:56:18.379Z,3.00
2022-09-06T19:59:19.813Z,3.13
2022-09-06T20:02:22.548Z,3.22
2022-09-06T20:05:24.210Z,3.20
2022-09-06T20:08:26.405Z,3.50
2022-09-06T20:11:30.512Z,3.40
2022-09-06T20:14:32.127Z,3.28
2022-09-06T20:17:34.630Z,3.40
2022-09-06T20:20:36.222Z,3.25
2022-09-06T20:23:37.753Z,2.75
2022-09-06T20:26:40.273Z,3.22
2022-09-06T20:29:41.755Z,2.70
2022-09-06T20:32:43.189Z,3.03
2022-09-06T20:35:53.736Z,2.90
2022-09-06T20:38:55.342Z,2.70
2022-09-06T20:41:56.910Z,2.67
2022-09-06T20:44:58.426Z,2.78
2022-09-06T20:47:59.928Z,2.70
2022-09-06T20:51:03.410Z,2.97
2022-09-06T20:54:05.419Z,2.80
2022-09-06T20:57:07.041Z,3.10
2022-09-06T21:00:12.524Z,2.90
2022-09-06T21:03:15.775Z,3.17
2022-09-06T21:06:18.220Z,2.77
2022-09-06T21:09:19.709Z,2.90
2022-09-06T21:12:21.142Z,2.70
2022-09-06T21:15:22.560Z,2.43
2022-09-06T21:18:26.340Z,2.50
2022-09-06T21:21:29.580Z,2.63
2022-09-06T21:24:31.068Z,3.00
2022-09-06T21:27:32.521Z,3.00
2022-09-06T21:30:33.982Z,2.90
2022-09-06T21:33:37.755Z,2.77
2022-09-06T21:36:39.682Z,2.83
2022-09-06T21:39:41.263Z,2.73
2022-09-06T21:42:42.784Z,2.80
2022-09-06T21:45:44.330Z,2.73
2022-09-06T21:48:48.331Z,3.00
2022-09-06T21:51:49.728Z,2.83
2022-09-06T21:54:51.142Z,3.00
2022-09-06T21:57:52.590Z,3.10
2022-09-06T22:00:59.057Z,3.00
2022-09-06T22:04:00.648Z,2.80
2022-09-06T22:07:02.052Z,2.60
2022-09-06T22:10:03.973Z,2.70
2022-09-06T22:13:05.410Z,3.17
2022-09-06T22:16:08.340Z,3.13
2022-09-06T22:19:10.236Z,2.57
2022-09-06T22:22:11.640Z,2.90
2022-09-06T22:25:13.757Z,3.07
2022-09-06T22:28:15.219Z,2.70
2022-09-06T22:31:16.754Z,2.77
2022-09-06T22:34:18.298Z,3.00
2022-09-06T22:37:20.128Z,2.63
2022-09-06T22:40:21.542Z,2.50
2022-09-06T22:43:23.376Z,2.50
2022-09-06T22:46:24.876Z,2.93
2022-09-06T22:49:26.333Z,2.70
2022-09-06T22:52:27.924Z,2.60
2022-09-06T22:55:29.730Z,2.50
2022-09-06T22:58:31.368Z,2.50
2022-09-06T23:01:38.619Z,2.87
2022-09-06T23:04:40.068Z,2.50
2022-09-06T23:07:43.311Z,2.83
2022-09-06T23:10:44.740Z,2.67
2022-09-06T23:13:47.038Z,2.90
2022-09-06T23:16:48.480Z,2.30
2022-09-06T23:19:49.947Z,2.77
2022-09-06T23:22:51.357Z,2.60
2022-09-06T23:25:54.096Z,2.63
2022-09-06T23:28:58.672Z,2.47
2022-09-06T23:32:00.286Z,2.87
2022-09-06T23:35:01.750Z,2.67
2022-09-06T23:38:03.204Z,2.80
2022-09-06T23:41:05.640Z,2.70
2022-09-06T23:44:07.072Z,2.50
2022-09-06T23:47:08.499Z,3.20
2022-09-06T23:50:10.721Z,2.60
2022-09-06T23:53:14.078Z,2.40
2022-09-06T23:56:15.898Z,2.27
2022-09-06T23:59:17.314Z,2.40
